createdAt,value
2023-07-18T00:00:48.801Z,58.11
2023-07-18T00:03:16.509Z,58.38
2023-07-18T00:05:43.466Z,58.21
2023-07-18T00:08:10.402Z,57.96
2023-07-18T00:10:37.839Z,58.13
2023-07-18T00:13:05.223Z,58.08
2023-07-18T00:15:32.182Z,58.26
2023-07-18T00:17:58.668Z,58.20
2023-07-18T00:20:26.787Z,58.11
2023-07-18T00:22:53.190Z,58.01
2023-07-18T00:25:21.156Z,58.18
2023-07-18T00:27:52.608Z,58.25
2023-07-18T00:30:19.253Z,58.41
2023-07-18T00:32:46.248Z,58.53
2023-07-18T00:35:13.961Z,58.30
2023-07-18T00:37:41.028Z,58.30
2023-07-18T00:40:12.944Z,58.56
2023-07-18T00:42:40.405Z,58.57
2023-07-18T00:45:08.170Z,58.50
2023-07-18T00:47:43.700Z,58.33
2023-07-18T00:50:15.494Z,58.54
2023-07-18T00:52:53.297Z,58.63
2023-07-18T00:55:20.454Z,58.47
2023-07-18T00:57:48.253Z,58.30
2023-07-18T01:00:17.744Z,58.59
2023-07-18T01:02:45.860Z,58.64
2023-07-18T01:05:17.811Z,59.38
2023-07-18T01:07:45.245Z,58.84
2023-07-18T01:10:25.928Z,59.96
2023-07-18T01:15:21.977Z,59.08
2023-07-18T01:17:49.775Z,59.48
2023-07-18T01:20:20.211Z,59.56
2023-07-18T01:22:48.143Z,59.66
2023-07-18T01:25:23.502Z,59.67
2023-07-18T01:27:52.229Z,59.97
2023-07-18T01:30:20.617Z,60.24
2023-07-18T01:32:50.507Z,60.25
2023-07-18T01:35:20.332Z,60.18
2023-07-18T01:37:47.560Z,60.16
2023-07-18T01:40:22.456Z,60.74
2023-07-18T01:42:57.127Z,61.02
2023-07-18T01:45:25.498Z,60.61
2023-07-18T01:47:52.432Z,60.61
2023-07-18T01:50:19.799Z,60.79
2023-07-18T01:52:48.041Z,60.81
2023-07-18T01:55:14.600Z,61.04
2023-07-18T01:57:41.438Z,61.01
2023-07-18T02:00:12.929Z,61.49
2023-07-18T02:02:40.029Z,61.28
2023-07-18T02:05:07.097Z,61.33
2023-07-18T02:07:33.753Z,61.55
2023-07-18T02:10:01.202Z,61.55
2023-07-18T02:12:28.244Z,61.56
2023-07-18T02:14:54.905Z,61.61
2023-07-18T02:17:21.616Z,61.71
2023-07-18T02:19:48.091Z,61.94
2023-07-18T02:22:14.484Z,61.92
2023-07-18T02:24:41.898Z,62.08
2023-07-18T02:27:08.320Z,61.72
2023-07-18T02:29:34.694Z,61.94
2023-07-18T02:32:01.166Z,62.03
2023-07-18T02:34:27.544Z,61.93
2023-07-18T02:36:55.227Z,62.08
2023-07-18T02:39:21.700Z,61.92
2023-07-18T02:41:48.070Z,61.91
2023-07-18T02:44:14.704Z,61.81
2023-07-18T02:46:41.154Z,61.95
2023-07-18T02:49:07.568Z,61.88
2023-07-18T02:51:34.218Z,62.19
2023-07-18T02:54:00.613Z,62.01
2023-07-18T02:56:27.227Z,62.01
2023-07-18T02:58:53.853Z,61.88
2023-07-18T03:01:20.842Z,61.94
2023-07-18T03:03:47.870Z,61.82
2023-07-18T03:06:17.693Z,62.10
2023-07-18T03:08:44.308Z,61.67
2023-07-18T03:11:10.928Z,61.50
2023-07-18T03:13:37.746Z,61.61
2023-07-18T03:16:06.169Z,61.56
2023-07-18T03:18:33.043Z,61.49
2023-07-18T03:20:59.744Z,61.41
2023-07-18T03:23:29.996Z,61.34
2023-07-18T03:25:56.730Z,61.15
2023-07-18T03:28:24.005Z,61.33
2023-07-18T03:30:50.598Z,61.32
2023-07-18T03:33:17.710Z,61.13
2023-07-18T03:35:44.277Z,61.22
2023-07-18T03:38:10.831Z,61.17
2023-07-18T03:40:37.503Z,61.07
2023-07-18T03:43:05.111Z,61.36
2023-07-18T03:45:31.863Z,61.07
2023-07-18T03:47:58.542Z,61.21
2023-07-18T03:50:25.165Z,61.11
2023-07-18T03:52:51.816Z,61.13
2023-07-18T03:55:18.436Z,61.27
2023-07-18T03:57:45.073Z,61.30
2023-07-18T04:00:15.670Z,61.42
2023-07-18T04:02:46.477Z,61.42
2023-07-18T04:05:15.238Z,61.30
2023-07-18T04:07:42.615Z,61.34
2023-07-18T04:10:09.711Z,61.39
2023-07-18T04:12:36.201Z,61.42
2023-07-18T04:15:03.044Z,61.28
2023-07-18T04:17:29.749Z,61.43
2023-07-18T04:20:00.370Z,61.57
2023-07-18T04:22:27.786Z,61.64
2023-07-18T04:24:56.825Z,61.47
2023-07-18T04:27:24.430Z,61.26
2023-07-18T04:29:51.032Z,61.33
2023-07-18T04:32:21.112Z,61.64
2023-07-18T04:34:50.622Z,61.48
2023-07-18T04:37:17.321Z,61.13
2023-07-18T04:39:43.891Z,60.93
2023-07-18T04:42:11.470Z,61.22
2023-07-18T04:44:39.085Z,61.11
2023-07-18T04:47:06.078Z,60.93
2023-07-18T04:49:33.111Z,61.09
2023-07-18T04:51:59.746Z,61.08
2023-07-18T04:54:26.474Z,61.00
2023-07-18T04:56:54.858Z,61.40
2023-07-18T04:59:22.862Z,61.28
2023-07-18T05:01:55.775Z,61.60
2023-07-18T05:04:22.693Z,61.09
2023-07-18T05:06:52.377Z,60.99
2023-07-18T05:09:20.464Z,61.18
2023-07-18T05:11:48.769Z,61.05
2023-07-18T05:14:15.466Z,61.09
2023-07-18T05:16:42.035Z,61.11
2023-07-18T05:19:08.739Z,61.05
2023-07-18T05:21:35.456Z,61.08
2023-07-18T05:24:02.150Z,61.13
2023-07-18T05:26:28.829Z,61.07
2023-07-18T05:28:55.402Z,61.23
2023-07-18T05:31:22.673Z,61.13
2023-07-18T05:33:49.996Z,61.44
2023-07-18T05:36:17.627Z,61.43
2023-07-18T05:38:46.312Z,61.75
2023-07-18T05:41:13.042Z,61.57
2023-07-18T05:43:39.603Z,61.89
2023-07-18T05:46:06.310Z,61.82
2023-07-18T05:48:33.082Z,61.87
2023-07-18T05:51:01.675Z,62.40
2023-07-18T05:53:28.411Z,62.54
2023-07-18T05:55:54.952Z,62.41
2023-07-18T05:58:21.629Z,62.21
2023-07-18T06:00:48.269Z,62.59
2023-07-18T06:03:14.931Z,62.36
2023-07-18T06:05:41.547Z,62.58
2023-07-18T06:08:08.528Z,62.37
2023-07-18T06:10:34.994Z,62.35
2023-07-18T06:13:01.612Z,62.70
2023-07-18T06:15:28.164Z,62.67
2023-07-18T06:17:55.102Z,62.64
2023-07-18T06:20:21.955Z,62.73
2023-07-18T06:22:48.787Z,62.67
2023-07-18T06:25:16.877Z,62.49
2023-07-18T06:27:43.515Z,62.73
2023-07-18T06:30:10.460Z,62.82
2023-07-18T06:32:37.193Z,62.16
2023-07-18T06:35:22.285Z,62.45
2023-07-18T06:37:49.368Z,62.45
2023-07-18T06:40:16.880Z,62.58
2023-07-18T06:42:44.303Z,62.62
2023-07-18T06:45:11.305Z,62.26
2023-07-18T06:47:37.944Z,62.08
2023-07-18T06:50:04.996Z,62.17
2023-07-18T06:52:33.203Z,61.89
2023-07-18T06:55:02.448Z,61.79
2023-07-18T06:57:29.754Z,61.70
2023-07-18T06:59:56.493Z,61.80
2023-07-18T07:02:23.192Z,61.15
2023-07-18T07:04:49.797Z,61.28
2023-07-18T07:07:16.276Z,61.49
2023-07-18T07:09:42.987Z,61.31
2023-07-18T07:12:13.797Z,61.10
2023-07-18T07:14:45.654Z,60.99
2023-07-18T07:17:12.337Z,61.02
2023-07-18T07:19:39.498Z,60.76
2023-07-18T07:22:06.673Z,61.02
2023-07-18T07:24:33.215Z,60.73
2023-07-18T07:26:59.837Z,60.92
2023-07-18T07:29:27.523Z,60.65
2023-07-18T07:31:54.763Z,60.77
2023-07-18T07:34:21.290Z,60.51
2023-07-18T07:36:47.925Z,60.28
2023-07-18T07:39:14.815Z,60.28
2023-07-18T07:41:41.759Z,60.35
2023-07-18T07:44:09.250Z,60.39
2023-07-18T07:46:35.863Z,60.34
2023-07-18T07:49:05.341Z,60.09
2023-07-18T07:51:32.865Z,60.17
2023-07-18T07:54:00.075Z,59.88
2023-07-18T07:56:26.640Z,59.61
2023-07-18T08:01:24.015Z,59.66
2023-07-18T08:03:50.707Z,59.62
2023-07-18T08:06:18.583Z,59.54
2023-07-18T08:08:45.149Z,59.44
2023-07-18T08:11:11.658Z,59.28
2023-07-18T08:13:38.182Z,59.44
2023-07-18T08:16:06.511Z,59.15
2023-07-18T08:18:33.133Z,58.93
2023-07-18T08:20:59.757Z,58.16
2023-07-18T08:23:26.466Z,58.58
2023-07-18T08:25:53.513Z,57.43
2023-07-18T08:28:20.106Z,58.10
2023-07-18T08:30:46.960Z,57.55
2023-07-18T08:33:14.725Z,57.95
2023-07-18T08:35:41.353Z,57.24
2023-07-18T08:38:09.430Z,57.31
2023-07-18T08:40:36.023Z,57.25
2023-07-18T08:43:03.711Z,57.03
2023-07-18T08:45:34.494Z,57.56
2023-07-18T08:48:01.037Z,56.95
2023-07-18T08:50:29.466Z,56.85
2023-07-18T08:52:56.299Z,56.51
2023-07-18T08:58:21.208Z,56.49
2023-07-18T09:00:49.227Z,55.96
2023-07-18T09:03:18.503Z,55.11
2023-07-18T09:05:44.906Z,54.91
2023-07-18T09:08:11.300Z,54.76
2023-07-18T09:10:37.757Z,53.71
2023-07-18T09:13:05.905Z,52.67
2023-07-18T09:15:37.543Z,51.67
2023-07-18T09:18:08.666Z,53.50
2023-07-18T09:20:35.602Z,53.30
2023-07-18T09:23:04.593Z,52.08
2023-07-18T09:25:31.688Z,52.76
2023-07-18T09:27:59.080Z,51.85
2023-07-18T09:30:33.872Z,52.26
2023-07-18T09:33:04.004Z,52.04
2023-07-18T09:35:30.478Z,51.70
2023-07-18T09:37:57.306Z,52.19
2023-07-18T09:40:23.707Z,51.20
2023-07-18T09:42:51.434Z,50.31
2023-07-18T09:45:18.440Z,50.75
2023-07-18T09:47:45.517Z,50.92
2023-07-18T09:50:13.432Z,51.34
2023-07-18T09:52:51.055Z,49.72
2023-07-18T09:55:25.848Z,50.22
2023-07-18T09:57:55.446Z,48.65
2023-07-18T10:00:23.795Z,50.27
2023-07-18T10:02:53.730Z,50.04
2023-07-18T10:05:20.828Z,49.99
2023-07-18T10:07:47.713Z,49.48
2023-07-18T10:10:14.665Z,48.92
2023-07-18T10:12:56.096Z,47.91
2023-07-18T10:15:23.483Z,48.66
2023-07-18T10:17:51.063Z,48.08
2023-07-18T10:20:23.843Z,46.19
2023-07-18T10:22:53.739Z,46.81
2023-07-18T10:25:20.755Z,46.37
2023-07-18T10:27:48.778Z,46.20
2023-07-18T10:30:17.334Z,46.09
2023-07-18T10:32:54.186Z,46.09
2023-07-18T10:35:23.607Z,46.26
2023-07-18T10:38:04.268Z,45.60
2023-07-18T10:40:36.941Z,46.57
2023-07-18T10:43:09.434Z,46.83
2023-07-18T10:45:42.923Z,46.46
2023-07-18T10:48:29.676Z,46.29
2023-07-18T10:50:56.149Z,45.82
2023-07-18T10:53:24.249Z,45.32
2023-07-18T10:55:50.794Z,44.76
2023-07-18T10:58:19.779Z,45.25
2023-07-18T11:00:47.455Z,43.84
2023-07-18T11:03:24.415Z,43.94
2023-07-18T11:05:52.327Z,43.57
2023-07-18T11:08:26.445Z,41.89
2023-07-18T11:10:58.561Z,39.32
2023-07-18T11:13:36.490Z,39.92
2023-07-18T11:16:06.730Z,38.42
2023-07-18T11:18:41.809Z,37.81
2023-07-18T11:21:10.037Z,39.10
2023-07-18T11:23:38.173Z,37.83
2023-07-18T11:26:13.285Z,36.75
2023-07-18T11:28:41.991Z,37.92
2023-07-18T11:33:55.675Z,36.59
2023-07-18T11:36:23.304Z,36.85
2023-07-18T11:38:50.829Z,36.73
2023-07-18T11:41:40.893Z,37.57
2023-07-18T11:44:09.735Z,36.91
2023-07-18T11:46:44.095Z,35.54
2023-07-18T11:49:16.241Z,35.90
2023-07-18T11:51:44.188Z,35.00
2023-07-18T11:54:10.637Z,35.07
2023-07-18T11:56:38.114Z,34.24
2023-07-18T11:59:04.715Z,33.96
2023-07-18T12:01:36.366Z,34.05
2023-07-18T12:04:11.517Z,34.13
2023-07-18T12:06:38.642Z,33.87
2023-07-18T12:09:05.357Z,33.55
2023-07-18T12:11:31.988Z,34.30
2023-07-18T12:13:59.344Z,35.03
2023-07-18T12:16:25.782Z,34.90
2023-07-18T12:18:52.225Z,33.72
2023-07-18T12:21:18.732Z,33.37
2023-07-18T12:23:45.360Z,33.56
2023-07-18T12:26:12.015Z,33.73
2023-07-18T12:28:38.435Z,34.63
2023-07-18T12:31:06.317Z,34.54
2023-07-18T12:33:32.896Z,33.85
2023-07-18T12:35:59.408Z,35.48
2023-07-18T12:38:27.672Z,35.17
2023-07-18T12:40:55.512Z,33.04
2023-07-18T12:43:22.044Z,31.74
2023-07-18T12:45:48.430Z,31.61
2023-07-18T12:48:14.861Z,30.49
2023-07-18T12:50:41.421Z,30.54
2023-07-18T12:53:07.799Z,31.58
2023-07-18T12:55:34.199Z,30.43
2023-07-18T12:58:00.582Z,30.71
2023-07-18T13:00:26.977Z,30.07
2023-07-18T13:02:53.467Z,30.35
2023-07-18T13:05:20.015Z,30.48
2023-07-18T13:07:46.427Z,30.66
2023-07-18T13:10:14.692Z,29.39
2023-07-18T13:12:41.458Z,28.53
2023-07-18T13:15:08.498Z,28.18
2023-07-18T13:17:34.907Z,28.17
2023-07-18T13:20:01.459Z,27.37
2023-07-18T13:22:27.867Z,27.84
2023-07-18T13:24:54.247Z,27.51
2023-07-18T13:27:20.689Z,27.10
2023-07-18T13:29:47.100Z,26.91
2023-07-18T13:32:13.604Z,25.67
2023-07-18T13:34:40.043Z,25.28
2023-07-18T13:37:06.921Z,25.96
2023-07-18T13:39:33.438Z,24.14
2023-07-18T13:42:07.957Z,23.71
2023-07-18T13:44:36.731Z,23.03
2023-07-18T13:47:13.261Z,22.51
2023-07-18T13:52:23.356Z,23.42
2023-07-18T13:54:52.394Z,23.79
2023-07-18T13:57:19.489Z,25.65
2023-07-18T13:59:46.527Z,24.36
2023-07-18T14:02:15.130Z,24.70
2023-07-18T14:04:43.802Z,24.01
2023-07-18T14:07:13.054Z,24.03
2023-07-18T14:09:43.609Z,23.94
2023-07-18T14:12:19.210Z,24.70
2023-07-18T14:14:45.626Z,25.23
2023-07-18T14:17:12.115Z,24.97
2023-07-18T14:19:41.575Z,23.89
2023-07-18T14:22:08.111Z,25.08
2023-07-18T14:24:34.560Z,24.40
2023-07-18T14:27:01.008Z,24.38
2023-07-18T14:29:27.438Z,24.33
2023-07-18T14:31:53.987Z,23.50
2023-07-18T14:34:20.432Z,23.16
2023-07-18T14:36:46.866Z,23.24
2023-07-18T14:39:13.253Z,23.35
2023-07-18T14:41:39.692Z,22.32
2023-07-18T14:44:06.059Z,23.18
2023-07-18T14:46:32.702Z,22.04
2023-07-18T14:48:59.085Z,22.94
2023-07-18T14:51:25.652Z,21.63
2023-07-18T14:53:52.172Z,21.16
2023-07-18T14:58:46.451Z,20.65
2023-07-18T15:01:13.091Z,21.13
2023-07-18T15:03:39.626Z,20.29
2023-07-18T15:06:06.234Z,20.96
2023-07-18T15:08:34.854Z,20.52
2023-07-18T15:11:01.706Z,20.53
2023-07-18T15:13:28.342Z,20.59
2023-07-18T15:15:55.164Z,20.46
2023-07-18T15:18:21.814Z,20.50
2023-07-18T15:20:48.419Z,20.17
2023-07-18T15:23:15.175Z,20.39
2023-07-18T15:25:42.154Z,20.64
2023-07-18T15:28:10.124Z,19.79
2023-07-18T15:30:36.700Z,19.49
2023-07-18T15:33:12.521Z,19.58
2023-07-18T15:35:49.905Z,19.26
2023-07-18T15:38:16.349Z,19.46
2023-07-18T15:40:42.865Z,19.19
2023-07-18T15:43:09.315Z,19.94
2023-07-18T15:45:36.005Z,19.87
2023-07-18T15:48:02.663Z,19.70
2023-07-18T15:50:30.183Z,19.62
2023-07-18T15:52:58.077Z,19.13
2023-07-18T15:55:24.644Z,19.19
2023-07-18T15:57:51.848Z,19.30
2023-07-18T16:00:18.670Z,19.48
2023-07-18T16:02:45.258Z,19.59
2023-07-18T16:05:11.924Z,19.67
2023-07-18T16:07:38.923Z,19.28
2023-07-18T16:10:05.906Z,19.24
2023-07-18T16:12:33.032Z,18.97
2023-07-18T16:15:00.132Z,19.25
2023-07-18T16:17:28.877Z,19.11
2023-07-18T16:19:57.250Z,19.02
2023-07-18T16:22:24.240Z,19.04
2023-07-18T16:24:50.774Z,19.19
2023-07-18T16:27:17.333Z,18.67
2023-07-18T16:29:44.842Z,19.44
2023-07-18T16:32:11.570Z,19.16
2023-07-18T16:34:38.444Z,19.13
2023-07-18T16:37:05.429Z,20.01
2023-07-18T16:39:33.097Z,19.96
2023-07-18T16:42:09.489Z,19.58
2023-07-18T16:44:40.583Z,19.72
2023-07-18T16:47:07.416Z,20.49
2023-07-18T16:49:34.058Z,21.08
2023-07-18T16:52:00.575Z,20.51
2023-07-18T16:54:27.153Z,20.79
2023-07-18T16:56:53.672Z,21.52
2023-07-18T16:59:20.396Z,21.48
2023-07-18T17:01:46.928Z,21.55
2023-07-18T17:04:13.574Z,21.54
2023-07-18T17:06:40.285Z,22.77
2023-07-18T17:09:07.331Z,23.28
2023-07-18T17:11:34.738Z,23.70
2023-07-18T17:14:01.376Z,23.65
2023-07-18T17:16:28.320Z,24.05
2023-07-18T17:18:55.075Z,24.46
2023-07-18T17:21:21.699Z,24.67
2023-07-18T17:23:48.305Z,24.90
2023-07-18T17:26:17.843Z,25.11
2023-07-18T17:28:44.856Z,24.94
2023-07-18T17:31:11.544Z,25.03
2023-07-18T17:33:38.230Z,24.83
2023-07-18T17:36:05.621Z,25.36
2023-07-18T17:38:34.095Z,25.37
2023-07-18T17:41:00.882Z,25.56
2023-07-18T17:43:27.504Z,26.06
2023-07-18T17:45:54.091Z,25.72
2023-07-18T17:48:20.639Z,26.05
2023-07-18T17:50:47.571Z,26.77
2023-07-18T17:53:17.273Z,27.20
2023-07-18T17:55:44.504Z,26.61
2023-07-18T17:58:11.153Z,26.55
2023-07-18T18:00:37.876Z,27.02
2023-07-18T18:03:05.341Z,27.48
2023-07-18T18:05:48.189Z,27.53
2023-07-18T18:08:15.529Z,27.10
2023-07-18T18:10:43.623Z,27.34
2023-07-18T18:13:10.214Z,27.65
2023-07-18T18:15:37.597Z,27.95
2023-07-18T18:18:08.686Z,27.89
2023-07-18T18:20:35.446Z,27.88
2023-07-18T18:23:02.563Z,28.17
2023-07-18T18:25:29.305Z,28.01
2023-07-18T18:27:56.731Z,28.23
2023-07-18T18:30:24.734Z,28.24
2023-07-18T18:32:51.718Z,28.14
2023-07-18T18:35:19.410Z,28.49
2023-07-18T18:37:48.523Z,28.58
2023-07-18T18:40:18.810Z,28.78
2023-07-18T18:42:46.215Z,28.97
2023-07-18T18:45:14.072Z,29.39
2023-07-18T18:47:41.810Z,29.82
2023-07-18T18:50:10.008Z,30.05
2023-07-18T18:52:39.544Z,29.86
2023-07-18T18:55:19.129Z,29.98
2023-07-18T18:57:50.415Z,30.51
2023-07-18T19:00:17.885Z,30.46
2023-07-18T19:02:44.990Z,30.90
2023-07-18T19:05:11.660Z,31.47
2023-07-18T19:07:38.833Z,32.11
2023-07-18T19:10:05.900Z,32.39
2023-07-18T19:12:32.511Z,32.63
2023-07-18T19:14:59.159Z,32.23
2023-07-18T19:17:25.879Z,33.37
2023-07-18T19:19:52.891Z,33.00
2023-07-18T19:22:20.764Z,32.85
2023-07-18T19:24:47.611Z,32.73
2023-07-18T19:27:14.930Z,32.26
2023-07-18T19:29:43.204Z,32.37
2023-07-18T19:32:11.191Z,32.14
2023-07-18T19:34:44.945Z,33.54
2023-07-18T19:37:11.806Z,32.66
2023-07-18T19:39:38.446Z,32.52
2023-07-18T19:42:05.947Z,33.15
2023-07-18T19:44:33.587Z,33.76
2023-07-18T19:47:00.117Z,33.82
2023-07-18T19:49:27.482Z,33.58
2023-07-18T19:51:54.263Z,33.44
2023-07-18T19:54:21.085Z,33.17
2023-07-18T19:56:47.924Z,33.17
2023-07-18T19:59:14.718Z,33.07
2023-07-18T20:01:41.436Z,33.02
2023-07-18T20:04:08.327Z,32.79
2023-07-18T20:06:34.948Z,32.73
2023-07-18T20:09:01.926Z,33.36
2023-07-18T20:11:29.080Z,33.20
2023-07-18T20:13:55.835Z,32.91
2023-07-18T20:16:22.507Z,32.67
2023-07-18T20:18:52.506Z,32.82
2023-07-18T20:21:20.881Z,33.80
2023-07-18T20:23:47.641Z,34.18
2023-07-18T20:26:14.258Z,34.55
2023-07-18T20:28:40.855Z,34.49
2023-07-18T20:31:07.612Z,34.86
2023-07-18T20:33:34.213Z,35.47
2023-07-18T20:36:00.785Z,36.34
2023-07-18T20:38:27.340Z,37.02
2023-07-18T20:40:54.384Z,37.74
2023-07-18T20:43:21.862Z,38.35
2023-07-18T20:46:02.058Z,38.67
2023-07-18T20:48:30.338Z,38.63
2023-07-18T20:50:57.651Z,39.17
2023-07-18T20:53:26.016Z,39.75
2023-07-18T20:55:52.643Z,40.09
2023-07-18T20:58:20.872Z,40.12
2023-07-18T21:00:48.340Z,40.48
2023-07-18T21:03:15.005Z,40.68
2023-07-18T21:05:41.427Z,40.74
2023-07-18T21:08:07.885Z,41.17
2023-07-18T21:10:34.597Z,40.86
2023-07-18T21:13:01.501Z,41.04
2023-07-18T21:15:27.905Z,41.65
2023-07-18T21:17:54.519Z,42.00
2023-07-18T21:20:21.420Z,41.86
2023-07-18T21:22:47.877Z,42.02
2023-07-18T21:25:14.714Z,41.82
2023-07-18T21:27:41.143Z,41.95
2023-07-18T21:30:08.674Z,42.38
2023-07-18T21:32:35.994Z,42.74
2023-07-18T21:35:03.383Z,43.02
2023-07-18T21:37:30.178Z,42.80
2023-07-18T21:39:56.618Z,42.95
2023-07-18T21:42:23.019Z,42.96
2023-07-18T21:44:49.462Z,43.57
2023-07-18T21:47:15.887Z,43.66
2023-07-18T21:49:42.262Z,43.80
2023-07-18T21:52:08.806Z,43.94
2023-07-18T21:54:35.176Z,44.31
2023-07-18T21:57:01.542Z,44.50
2023-07-18T21:59:27.942Z,44.61
2023-07-18T22:01:54.344Z,44.89
2023-07-18T22:04:20.723Z,44.66
2023-07-18T22:06:47.098Z,44.85
2023-07-18T22:09:13.527Z,45.21
2023-07-18T22:11:39.933Z,45.30
2023-07-18T22:14:06.304Z,45.29
2023-07-18T22:16:32.753Z,45.31
2023-07-18T22:18:59.168Z,45.46
2023-07-18T22:21:26.710Z,45.77
2023-07-18T22:23:53.093Z,46.12
2023-07-18T22:26:19.483Z,45.98
2023-07-18T22:28:45.903Z,46.09
2023-07-18T22:31:12.939Z,46.41
2023-07-18T22:33:39.531Z,46.30
2023-07-18T22:36:06.319Z,46.23
2023-07-18T22:38:32.739Z,46.35
2023-07-18T22:40:59.789Z,46.49
2023-07-18T22:43:26.324Z,46.53
2023-07-18T22:45:52.819Z,46.76
2023-07-18T22:48:22.503Z,47.18
2023-07-18T22:50:52.056Z,47.83
2023-07-18T22:53:19.282Z,47.64
2023-07-18T22:55:48.790Z,48.00
2023-07-18T22:58:15.970Z,47.40
2023-07-18T23:00:42.820Z,47.37
2023-07-18T23:03:09.890Z,47.35
2023-07-18T23:05:36.822Z,47.65
2023-07-18T23:08:03.335Z,47.47
2023-07-18T23:10:29.710Z,47.91
2023-07-18T23:12:56.100Z,48.08
2023-07-18T23:15:22.556Z,47.95
2023-07-18T23:17:48.949Z,48.06
2023-07-18T23:20:15.376Z,48.12
2023-07-18T23:22:42.132Z,48.15
2023-07-18T23:25:09.157Z,48.50
2023-07-18T23:27:35.625Z,48.44
2023-07-18T23:30:03.952Z,49.11
2023-07-18T23:32:30.334Z,48.53
2023-07-18T23:34:58.110Z,49.09
2023-07-18T23:37:24.583Z,49.01
2023-07-18T23:39:53.135Z,49.58
2023-07-18T23:42:19.566Z,49.23
2023-07-18T23:44:45.965Z,49.20
2023-07-18T23:47:12.360Z,49.45
2023-07-18T23:49:38.835Z,49.31
2023-07-18T23:52:05.564Z,49.38
2023-07-18T23:54:32.040Z,49.24
2023-07-18T23:56:58.460Z,49.75
2023-07-18T23:59:24.829Z,49.68
